Decoded Metar for LZZI (ZILINA in SLOVAKIA) (IATA:N/A) | Meteo·Mobile Aviation Weather
aviador You're here:

LZZI Decoded Metar

ZILINA in SLOVAKIA
Report Time2019-10-21 00:30:00
UTC Time2019-10-21 00:47:09
Flight Rules vfr VFR
WindVRB at 02 kt
Visibility9999 m
Phenomena:N/A
Clouds:Few 042 Hf
CeilingNone
Temp08°C (ISA -5)
Dew Point08°C (100% RH)
AAT6.8°C
QNH1017 hPa
Density Alt436 ft
Elevation1,020 ft
Report Wrong Elevation
Raw Report
LZZI 210030Z VRB02KT 9999 FEW042 08/08 Q1017=

Extra information for LZZI:More info

Metar Taf Metar & Taf Last 4 Metars F.Rules Stats Wind Profile Meteogram Temp Stats Airport Information Weather charts Add Link Nearby VenuesMetar ALERT Operation Metar Decoded Social comments